createdAt,value
2022-12-23T00:01:25.685Z,133.45
2022-12-23T00:03:53.291Z,127.45
2022-12-23T00:06:21.813Z,129.77
2022-12-23T00:08:50.315Z,127.72
2022-12-23T00:11:20.063Z,127.25
2022-12-23T00:14:06.392Z,120.85
2022-12-23T00:16:36.758Z,123.85
2022-12-23T00:19:04.493Z,129.25
2022-12-23T00:21:32.071Z,123.22
2022-12-23T00:23:59.377Z,122.65
2022-12-23T00:26:28.103Z,119.43
2022-12-23T00:28:59.085Z,121.32
2022-12-23T00:31:26.724Z,119.15
2022-12-23T00:33:54.486Z,120.15
2022-12-23T00:36:25.418Z,120.38
2022-12-23T00:39:11.110Z,121.38
2022-12-23T00:41:59.185Z,120.63
2022-12-23T00:44:27.972Z,120.20
2022-12-23T00:46:55.486Z,144.77
2022-12-23T00:49:41.308Z,135.65
2022-12-23T00:52:11.783Z,122.50
2022-12-23T00:54:39.424Z,124.57
2022-12-23T00:57:07.802Z,128.65
2022-12-23T00:59:35.026Z,132.57
2022-12-23T01:02:21.757Z,130.70
2022-12-23T01:05:08.857Z,133.15
2022-12-23T01:07:36.362Z,132.55
2022-12-23T01:10:05.271Z,141.70
2022-12-23T01:12:32.619Z,138.48
2022-12-23T01:15:01.295Z,130.75
2022-12-23T01:17:28.855Z,136.45
2022-12-23T01:19:56.510Z,136.10
2022-12-23T01:22:23.936Z,129.30
2022-12-23T01:24:51.216Z,119.32
2022-12-23T01:27:22.696Z,118.68
2022-12-23T01:29:49.808Z,111.72
2022-12-23T01:32:17.326Z,115.88
2022-12-23T01:34:44.521Z,108.18
2022-12-23T01:37:11.881Z,116.28
2022-12-23T01:39:39.013Z,113.65
2022-12-23T01:42:32.694Z,117.45
2022-12-23T01:45:01.638Z,113.03
2022-12-23T01:47:29.275Z,113.97
2022-12-23T01:50:21.381Z,117.40
2022-12-23T01:53:07.802Z,119.93
2022-12-23T01:55:56.665Z,119.07
2022-12-23T01:58:32.113Z,120.32
2022-12-23T02:01:18.419Z,123.43
2022-12-23T02:03:47.048Z,124.28
2022-12-23T02:06:38.507Z,117.95
2022-12-23T02:09:28.544Z,126.60
2022-12-23T02:12:09.629Z,105.97
2022-12-23T02:15:21.011Z,97.88
2022-12-23T02:17:48.119Z,84.57
2022-12-23T02:20:51.823Z,74.65
2022-12-23T02:23:50.512Z,63.05
2022-12-23T02:26:26.846Z,56.05
2022-12-23T02:29:18.837Z,60.20
2022-12-23T02:32:41.687Z,58.83
2022-12-23T02:35:27.564Z,51.30
2022-12-23T02:38:16.025Z,44.67
2022-12-23T02:41:17.598Z,43.58
2022-12-23T02:43:57.119Z,43.08
2022-12-23T02:46:46.361Z,44.67
2022-12-23T02:49:25.806Z,45.28
2022-12-23T02:51:57.403Z,49.28
2022-12-23T02:54:52.729Z,53.78
2022-12-23T02:57:29.476Z,56.28
2022-12-23T02:59:57.868Z,59.65
2022-12-23T03:02:25.298Z,58.92
2022-12-23T03:04:53.183Z,59.10
2022-12-23T03:07:30.784Z,58.78
2022-12-23T03:10:19.844Z,59.83
2022-12-23T03:12:58.135Z,58.97
2022-12-23T03:15:39.113Z,59.95
2022-12-23T03:18:06.334Z,60.63
2022-12-23T03:20:38.196Z,59.97
2022-12-23T03:23:14.975Z,65.90
2022-12-23T03:25:53.637Z,65.65
2022-12-23T03:28:31.271Z,57.78
2022-12-23T03:31:03.762Z,60.97
2022-12-23T03:33:41.538Z,52.90
2022-12-23T03:36:25.598Z,50.20
2022-12-23T03:38:55.064Z,48.30
2022-12-23T03:41:30.513Z,54.25
2022-12-23T03:44:13.765Z,67.50
2022-12-23T03:46:49.359Z,65.50
2022-12-23T03:49:24.862Z,54.35
2022-12-23T03:52:03.436Z,46.63
2022-12-23T03:54:39.920Z,42.70
2022-12-23T03:57:09.892Z,37.13
2022-12-23T03:59:41.248Z,37.28
2022-12-23T04:02:33.117Z,38.67
2022-12-23T04:05:19.926Z,35.65
2022-12-23T04:08:00.289Z,36.47
2022-12-23T04:10:28.288Z,34.83
2022-12-23T04:12:56.034Z,36.30
2022-12-23T04:15:25.462Z,39.33
2022-12-23T04:17:54.776Z,39.92
2022-12-23T04:20:22.478Z,40.42
2022-12-23T04:22:50.792Z,47.10
2022-12-23T04:25:18.270Z,47.33
2022-12-23T04:27:45.810Z,33.33
2022-12-23T04:30:14.062Z,40.53
2022-12-23T04:32:42.887Z,34.28
2022-12-23T04:35:12.346Z,35.35
2022-12-23T04:37:39.784Z,36.90
2022-12-23T04:40:09.607Z,35.42
2022-12-23T04:42:37.162Z,35.70
2022-12-23T04:45:04.764Z,28.08
2022-12-23T04:47:32.180Z,36.72
2022-12-23T04:49:59.227Z,32.88
2022-12-23T04:52:27.158Z,35.55
2022-12-23T04:54:54.396Z,32.08
2022-12-23T04:57:21.875Z,28.63
2022-12-23T04:59:51.290Z,31.20
2022-12-23T05:02:18.857Z,21.80
2022-12-23T05:04:46.322Z,23.45
2022-12-23T05:07:13.735Z,24.02
2022-12-23T05:09:40.843Z,25.45
2022-12-23T05:12:08.662Z,24.83
2022-12-23T05:14:35.820Z,25.02
2022-12-23T05:17:07.460Z,20.15
2022-12-23T05:19:35.376Z,17.55
2022-12-23T05:22:03.825Z,18.92
2022-12-23T05:24:32.075Z,20.98
2022-12-23T05:27:00.540Z,20.35
2022-12-23T05:29:29.073Z,19.48
2022-12-23T05:31:56.722Z,19.75
2022-12-23T05:34:25.472Z,18.23
2022-12-23T05:36:52.974Z,18.83
2022-12-23T05:39:20.456Z,19.40
2022-12-23T05:41:50.028Z,20.63
2022-12-23T05:44:17.268Z,19.75
2022-12-23T05:46:44.666Z,19.38
2022-12-23T05:49:11.872Z,31.35
2022-12-23T05:51:42.236Z,49.13
2022-12-23T05:54:09.378Z,56.13
2022-12-23T05:56:36.947Z,53.90
2022-12-23T05:59:04.086Z,53.15
2022-12-23T06:01:31.646Z,54.03
2022-12-23T06:03:59.295Z,58.15
2022-12-23T06:06:27.033Z,58.83
2022-12-23T06:08:59.354Z,62.17
2022-12-23T06:11:28.383Z,71.68
2022-12-23T06:13:55.570Z,122.85
2022-12-23T06:16:23.489Z,98.53
2022-12-23T06:18:55.101Z,56.75
2022-12-23T06:21:23.822Z,39.28
2022-12-23T06:23:51.630Z,29.27
2022-12-23T06:26:19.349Z,38.55
2022-12-23T06:28:46.665Z,35.78
2022-12-23T06:31:14.189Z,34.90
2022-12-23T06:33:41.441Z,38.78
2022-12-23T06:36:09.340Z,40.67
2022-12-23T06:38:36.531Z,40.80
2022-12-23T06:41:04.119Z,39.35
2022-12-23T06:43:31.206Z,47.70
2022-12-23T06:45:58.635Z,31.02
2022-12-23T06:48:28.154Z,34.67
2022-12-23T06:50:55.724Z,53.55
2022-12-23T06:53:23.010Z,51.78
2022-12-23T06:55:50.433Z,41.00
2022-12-23T06:58:17.608Z,35.80
2022-12-23T07:00:45.222Z,36.83
2022-12-23T07:03:13.534Z,38.08
2022-12-23T07:05:41.025Z,34.80
2022-12-23T07:08:08.104Z,31.63
2022-12-23T07:10:37.661Z,34.55
2022-12-23T07:13:04.841Z,32.22
2022-12-23T07:15:32.272Z,28.83
2022-12-23T07:17:59.430Z,28.70
2022-12-23T07:20:27.722Z,30.80
2022-12-23T07:22:55.775Z,31.15
2022-12-23T07:25:24.335Z,29.08
2022-12-23T07:27:55.318Z,26.98
2022-12-23T07:30:24.433Z,28.27
2022-12-23T07:32:52.102Z,25.33
2022-12-23T07:35:19.721Z,23.92
2022-12-23T07:37:55.629Z,22.05
2022-12-23T07:40:24.869Z,23.40
2022-12-23T07:42:58.354Z,23.25
2022-12-23T07:45:28.806Z,23.20
2022-12-23T07:47:59.408Z,38.90
2022-12-23T07:50:27.390Z,69.38
2022-12-23T07:52:55.012Z,36.50
2022-12-23T07:55:23.533Z,27.83
2022-12-23T07:57:52.344Z,27.40
2022-12-23T08:00:22.611Z,29.58
2022-12-23T08:02:50.043Z,45.67
2022-12-23T08:05:18.833Z,47.88
2022-12-23T08:07:46.334Z,33.15
2022-12-23T08:10:13.796Z,38.50
2022-12-23T08:12:41.830Z,33.80
2022-12-23T08:15:09.692Z,29.88
2022-12-23T08:17:36.784Z,19.73
2022-12-23T08:20:07.416Z,22.35
2022-12-23T08:22:34.874Z,32.75
2022-12-23T08:25:02.373Z,26.55
2022-12-23T08:27:29.489Z,23.42
2022-12-23T08:29:56.933Z,28.98
2022-12-23T08:32:27.283Z,23.35
2022-12-23T08:34:57.419Z,24.50
2022-12-23T08:37:25.097Z,28.75
2022-12-23T08:39:52.625Z,23.75
2022-12-23T08:42:21.765Z,28.45
2022-12-23T08:44:49.874Z,28.58
2022-12-23T08:47:17.011Z,19.70
2022-12-23T08:49:45.671Z,16.05
2022-12-23T08:52:12.954Z,16.23
2022-12-23T08:54:40.361Z,17.33
2022-12-23T08:57:07.472Z,18.83
2022-12-23T08:59:34.916Z,21.35
2022-12-23T09:02:03.690Z,18.02
2022-12-23T09:04:36.146Z,21.27
2022-12-23T09:07:03.322Z,17.25
2022-12-23T09:09:30.714Z,17.48
2022-12-23T09:11:58.071Z,17.00
2022-12-23T09:14:25.569Z,18.55
2022-12-23T09:16:52.728Z,18.48
2022-12-23T09:19:20.528Z,22.13
2022-12-23T09:21:47.945Z,19.05
2022-12-23T09:24:17.343Z,18.90
2022-12-23T09:26:44.496Z,17.67
2022-12-23T09:29:11.924Z,19.00
2022-12-23T09:31:39.170Z,20.60
2022-12-23T09:34:06.839Z,19.20
2022-12-23T09:36:34.383Z,18.48
2022-12-23T09:39:01.768Z,19.38
2022-12-23T09:41:48.553Z,18.38
2022-12-23T09:44:49.638Z,20.67
2022-12-23T09:47:20.889Z,23.58
2022-12-23T09:50:00.594Z,20.15
2022-12-23T09:52:53.971Z,17.17
2022-12-23T09:55:28.428Z,18.30
2022-12-23T09:58:03.280Z,20.42
2022-12-23T10:00:39.854Z,18.33
2022-12-23T10:03:07.190Z,22.02
2022-12-23T10:05:54.687Z,17.48
2022-12-23T10:08:34.043Z,15.57
2022-12-23T10:11:18.266Z,16.38
2022-12-23T10:13:58.476Z,15.43
2022-12-23T10:16:30.366Z,13.63
2022-12-23T10:19:05.627Z,12.75
2022-12-23T10:21:50.818Z,14.52
2022-12-23T10:24:28.653Z,14.77
2022-12-23T10:27:15.290Z,19.15
2022-12-23T10:29:42.721Z,19.02
2022-12-23T10:32:29.262Z,17.85
2022-12-23T10:35:08.540Z,22.48
2022-12-23T10:37:45.690Z,16.35
2022-12-23T10:40:23.367Z,15.13
2022-12-23T10:43:09.444Z,20.08
2022-12-23T10:45:56.412Z,17.77
2022-12-23T10:49:01.906Z,25.38
2022-12-23T10:51:30.968Z,28.63
2022-12-23T10:54:10.175Z,16.23
2022-12-23T10:56:37.779Z,15.52
2022-12-23T10:59:07.071Z,17.02
2022-12-23T11:01:34.975Z,16.20
2022-12-23T11:04:10.240Z,19.48
2022-12-23T11:06:41.373Z,13.98
2022-12-23T11:09:37.966Z,14.13
2022-12-23T11:12:08.251Z,15.85
2022-12-23T11:14:35.728Z,14.35
2022-12-23T11:17:05.734Z,16.27
2022-12-23T11:19:33.245Z,15.65
2022-12-23T11:22:02.168Z,13.60
2022-12-23T11:24:39.583Z,10.63
2022-12-23T11:27:16.117Z,12.40
2022-12-23T11:29:55.103Z,13.02
2022-12-23T11:32:26.208Z,28.27
2022-12-23T11:35:00.458Z,31.50
2022-12-23T11:37:38.040Z,62.13
2022-12-23T11:40:35.411Z,44.58
2022-12-23T11:43:06.772Z,40.90
2022-12-23T11:45:37.160Z,27.00
2022-12-23T11:48:06.296Z,18.60
2022-12-23T11:50:41.181Z,26.30
2022-12-23T11:53:22.998Z,27.95
2022-12-23T11:56:09.988Z,21.42
2022-12-23T11:58:50.857Z,25.25
2022-12-23T12:01:21.441Z,8.23
2022-12-23T12:03:55.049Z,8.68
2022-12-23T12:06:23.725Z,7.78
2022-12-23T12:08:52.964Z,7.70
2022-12-23T12:11:45.372Z,7.80
2022-12-23T12:14:41.825Z,9.60
2022-12-23T12:17:39.613Z,7.68
2022-12-23T12:20:25.651Z,9.20
2022-12-23T12:23:02.425Z,9.23
2022-12-23T12:25:42.003Z,9.27
2022-12-23T12:28:18.751Z,9.57
2022-12-23T12:31:21.568Z,9.55
2022-12-23T12:33:53.441Z,8.80
2022-12-23T12:36:39.331Z,6.82
2022-12-23T12:39:16.638Z,8.52
2022-12-23T12:42:05.518Z,6.43
2022-12-23T12:44:41.783Z,9.98
2022-12-23T12:47:52.205Z,13.57
2022-12-23T12:50:20.378Z,7.35
2022-12-23T12:52:47.836Z,8.10
2022-12-23T12:55:21.559Z,6.28
2022-12-23T12:57:48.850Z,12.00
2022-12-23T13:00:19.512Z,8.25
2022-12-23T13:03:07.824Z,6.47
2022-12-23T13:06:00.203Z,10.70
2022-12-23T13:08:36.785Z,9.40
2022-12-23T13:11:26.431Z,5.80
2022-12-23T13:14:19.601Z,6.80
2022-12-23T13:17:13.563Z,5.27
2022-12-23T13:19:59.627Z,4.93
2022-12-23T13:22:34.364Z,16.17
2022-12-23T13:25:14.734Z,28.98
2022-12-23T13:28:06.257Z,7.20
2022-12-23T13:30:42.902Z,5.88
2022-12-23T13:33:20.321Z,9.38
2022-12-23T13:35:51.326Z,10.38
2022-12-23T13:38:38.236Z,12.43
2022-12-23T13:41:23.679Z,9.88
2022-12-23T13:44:10.898Z,8.95
2022-12-23T13:46:58.254Z,6.90
2022-12-23T13:49:44.110Z,7.88
2022-12-23T13:52:56.977Z,7.32
2022-12-23T13:56:02.410Z,44.83
2022-12-23T13:58:33.307Z,59.90
2022-12-23T14:01:11.897Z,56.42
2022-12-23T14:03:40.331Z,60.20
2022-12-23T14:06:26.311Z,56.58
2022-12-23T14:08:55.238Z,49.95
2022-12-23T14:11:27.569Z,48.80
2022-12-23T14:14:01.866Z,57.30
2022-12-23T14:16:57.959Z,51.88
2022-12-23T14:19:55.485Z,49.53
2022-12-23T14:22:49.022Z,49.17
2022-12-23T14:25:37.839Z,51.00
2022-12-23T14:28:06.581Z,56.00
2022-12-23T14:30:45.074Z,50.92
2022-12-23T14:33:27.973Z,58.63
2022-12-23T14:36:15.503Z,57.30
2022-12-23T14:38:43.140Z,57.70
2022-12-23T14:41:19.575Z,70.32
2022-12-23T14:43:47.092Z,63.17
2022-12-23T14:46:36.354Z,62.22
2022-12-23T14:49:40.933Z,82.55
2022-12-23T14:52:44.462Z,72.97
2022-12-23T14:55:31.323Z,71.53
2022-12-23T14:58:28.339Z,67.43
2022-12-23T15:01:11.934Z,75.35
2022-12-23T15:03:47.008Z,75.97
2022-12-23T15:06:30.952Z,119.85
2022-12-23T15:08:59.068Z,161.70
2022-12-23T15:11:29.337Z,146.90
2022-12-23T15:14:00.239Z,160.27
2022-12-23T15:16:37.382Z,138.68
2022-12-23T15:19:33.543Z,77.43
2022-12-23T15:22:20.760Z,70.88
2022-12-23T15:24:51.437Z,116.78
2022-12-23T15:27:29.413Z,65.15
2022-12-23T15:29:58.331Z,51.42
2022-12-23T15:32:28.119Z,50.35
2022-12-23T15:35:05.205Z,50.08
2022-12-23T15:37:33.668Z,60.65
2022-12-23T15:40:11.471Z,64.47
2022-12-23T15:42:59.831Z,71.50
2022-12-23T15:45:41.653Z,65.68
2022-12-23T15:48:29.663Z,65.03
2022-12-23T15:51:01.325Z,61.20
2022-12-23T15:53:33.656Z,64.30
2022-12-23T15:56:06.859Z,63.50
2022-12-23T15:58:35.708Z,57.33
2022-12-23T16:01:03.339Z,62.40
2022-12-23T16:03:38.987Z,60.65
2022-12-23T16:06:24.377Z,64.50
2022-12-23T16:09:02.404Z,75.53
2022-12-23T16:11:48.072Z,90.05
2022-12-23T16:14:30.991Z,115.15
2022-12-23T16:17:13.667Z,110.03
2022-12-23T16:19:52.883Z,91.18
2022-12-23T16:22:29.920Z,97.40
2022-12-23T16:25:12.553Z,96.45
2022-12-23T16:27:45.627Z,105.72
2022-12-23T16:30:17.882Z,97.03
2022-12-23T16:32:58.889Z,118.07
2022-12-23T16:35:36.793Z,103.35
2022-12-23T16:38:18.145Z,145.82
2022-12-23T16:40:52.904Z,118.82
2022-12-23T16:43:22.363Z,112.72
2022-12-23T16:45:56.151Z,114.22
2022-12-23T16:48:35.962Z,133.25
2022-12-23T16:51:07.479Z,127.90
2022-12-23T16:53:34.652Z,132.68
2022-12-23T16:56:02.666Z,88.50
2022-12-23T16:58:30.132Z,93.35
2022-12-23T17:00:58.180Z,67.65
2022-12-23T17:03:26.025Z,71.93
2022-12-23T17:05:53.644Z,71.15
2022-12-23T17:08:20.815Z,58.95
2022-12-23T17:10:48.421Z,63.63
2022-12-23T17:13:18.853Z,65.90
2022-12-23T17:15:46.345Z,74.20
2022-12-23T17:18:16.312Z,64.65
2022-12-23T17:20:46.304Z,70.82
2022-12-23T17:23:32.604Z,71.97
2022-12-23T17:26:01.667Z,70.32
2022-12-23T17:28:32.814Z,72.30
2022-12-23T17:31:01.691Z,72.53
2022-12-23T17:33:33.876Z,74.63
2022-12-23T17:36:03.047Z,83.22
2022-12-23T17:38:30.211Z,82.88
2022-12-23T17:41:00.999Z,86.85
2022-12-23T17:43:28.438Z,84.95
2022-12-23T17:45:56.150Z,73.38
2022-12-23T17:48:32.027Z,75.53
2022-12-23T17:51:03.536Z,77.18
2022-12-23T17:53:33.640Z,71.13
2022-12-23T17:56:05.753Z,70.25
2022-12-23T17:58:34.442Z,65.18
2022-12-23T18:01:02.829Z,60.55
2022-12-23T18:03:30.196Z,76.13
2022-12-23T18:06:02.108Z,80.45
2022-12-23T18:08:57.490Z,76.63
2022-12-23T18:11:39.752Z,63.08
2022-12-23T18:14:14.729Z,74.88
2022-12-23T18:16:43.382Z,64.30
2022-12-23T18:19:21.884Z,81.15
2022-12-23T18:21:51.692Z,74.88
2022-12-23T18:24:19.527Z,75.28
2022-12-23T18:26:50.839Z,88.35
2022-12-23T18:29:19.200Z,85.90
2022-12-23T18:31:52.083Z,86.95
2022-12-23T18:34:21.183Z,88.95
2022-12-23T18:36:49.143Z,84.68
2022-12-23T18:39:19.011Z,88.70
2022-12-23T18:41:46.780Z,73.85
2022-12-23T18:44:21.749Z,88.43
2022-12-23T18:46:52.369Z,79.63
2022-12-23T18:49:47.855Z,74.75
2022-12-23T18:52:23.164Z,67.50
2022-12-23T18:54:54.319Z,62.47
2022-12-23T18:57:23.374Z,61.17
2022-12-23T18:59:50.615Z,56.75
2022-12-23T19:02:18.903Z,55.25
2022-12-23T19:04:46.357Z,50.40
2022-12-23T19:07:14.616Z,47.70
2022-12-23T19:09:43.230Z,46.60
2022-12-23T19:12:10.634Z,49.38
2022-12-23T19:14:39.431Z,58.38
2022-12-23T19:17:06.754Z,47.38
2022-12-23T19:19:34.221Z,43.17
2022-12-23T19:22:01.634Z,44.10
2022-12-23T19:24:30.007Z,40.08
2022-12-23T19:26:57.527Z,40.30
2022-12-23T19:29:25.947Z,59.60
2022-12-23T19:31:53.857Z,41.10
2022-12-23T19:34:20.960Z,39.15
2022-12-23T19:36:48.868Z,39.55
2022-12-23T19:39:17.244Z,44.20
2022-12-23T19:41:46.382Z,43.17
2022-12-23T19:44:15.032Z,40.47
2022-12-23T19:46:45.575Z,36.28
2022-12-23T19:49:19.592Z,37.20
2022-12-23T19:51:47.958Z,42.28
2022-12-23T19:54:15.507Z,49.33
2022-12-23T19:56:44.750Z,54.85
2022-12-23T19:59:12.731Z,54.80
2022-12-23T20:01:42.007Z,57.90
2022-12-23T20:04:11.966Z,53.95
2022-12-23T20:06:41.759Z,50.80
2022-12-23T20:09:12.034Z,76.97
2022-12-23T20:11:42.866Z,79.47
2022-12-23T20:14:11.517Z,77.65
2022-12-23T20:16:40.353Z,71.45
2022-12-23T20:19:08.185Z,49.90
2022-12-23T20:21:37.631Z,53.88
2022-12-23T20:24:06.808Z,53.65
2022-12-23T20:26:34.952Z,47.13
2022-12-23T20:29:03.236Z,63.78
2022-12-23T20:31:33.323Z,42.90
2022-12-23T20:34:01.990Z,38.90
2022-12-23T20:36:32.722Z,38.58
2022-12-23T20:39:00.420Z,42.78
2022-12-23T20:41:29.495Z,43.95
2022-12-23T20:44:32.239Z,47.33
2022-12-23T20:46:45.045Z,53.38
2022-12-23T20:49:12.466Z,43.72
2022-12-23T20:51:40.446Z,38.97
2022-12-23T20:54:08.881Z,47.88
2022-12-23T20:56:36.320Z,57.25
2022-12-23T20:59:04.024Z,45.85
2022-12-23T21:01:35.431Z,40.53
2022-12-23T21:04:05.861Z,42.03
2022-12-23T21:06:35.913Z,37.88
2022-12-23T21:09:05.862Z,40.78
2022-12-23T21:11:36.024Z,36.05
2022-12-23T21:14:06.821Z,40.10
2022-12-23T21:16:36.667Z,60.25
2022-12-23T21:19:07.525Z,51.67
2022-12-23T21:21:36.503Z,47.40
2022-12-23T21:24:05.171Z,41.33
2022-12-23T21:26:34.819Z,46.38
2022-12-23T21:29:04.182Z,54.92
2022-12-23T21:31:33.995Z,53.83
2022-12-23T21:34:02.130Z,48.60
2022-12-23T21:36:33.226Z,51.53
2022-12-23T21:39:01.275Z,40.60
2022-12-23T21:41:34.012Z,39.53
2022-12-23T21:44:01.248Z,45.78
2022-12-23T21:46:29.359Z,44.15
2022-12-23T21:48:58.942Z,43.92
2022-12-23T21:51:39.084Z,42.53
2022-12-23T21:54:08.064Z,40.55
2022-12-23T21:56:35.711Z,45.58
2022-12-23T21:59:11.511Z,45.05
2022-12-23T22:01:39.761Z,42.28
2022-12-23T22:04:09.513Z,46.22
2022-12-23T22:06:43.825Z,34.65
2022-12-23T22:09:19.764Z,33.50
2022-12-23T22:11:48.192Z,30.77
2022-12-23T22:14:17.461Z,26.58
2022-12-23T22:16:46.033Z,26.50
2022-12-23T22:19:13.277Z,27.40
2022-12-23T22:21:42.720Z,31.65
2022-12-23T22:24:11.082Z,27.70
2022-12-23T22:26:39.635Z,26.58
2022-12-23T22:29:07.518Z,23.80
2022-12-23T22:31:40.684Z,29.48
2022-12-23T22:34:11.018Z,28.30
2022-12-23T22:36:38.557Z,30.02
2022-12-23T22:39:07.779Z,30.25
2022-12-23T22:41:36.965Z,27.35
2022-12-23T22:44:05.932Z,29.90
2022-12-23T22:46:33.841Z,23.48
2022-12-23T22:49:01.115Z,20.98
2022-12-23T22:51:30.640Z,25.90
2022-12-23T22:53:58.640Z,26.65
2022-12-23T22:56:26.973Z,41.25
2022-12-23T22:58:55.241Z,48.03
2022-12-23T23:01:31.419Z,54.92
2022-12-23T23:04:02.401Z,57.13
2022-12-23T23:06:39.416Z,57.15
2022-12-23T23:09:08.313Z,56.15
2022-12-23T23:11:36.654Z,57.30
2022-12-23T23:14:04.671Z,52.33
2022-12-23T23:16:33.277Z,54.78
2022-12-23T23:19:00.628Z,69.47
2022-12-23T23:21:29.517Z,69.00
2022-12-23T23:23:57.366Z,66.20
2022-12-23T23:26:27.484Z,71.10
2022-12-23T23:28:55.282Z,81.32
2022-12-23T23:34:12.470Z,81.18
2022-12-23T23:36:40.125Z,77.97
2022-12-23T23:39:07.895Z,86.13
2022-12-23T23:41:35.971Z,73.63
2022-12-23T23:44:03.602Z,70.95
2022-12-23T23:46:33.008Z,63.58
2022-12-23T23:49:01.216Z,68.95
2022-12-23T23:51:29.504Z,69.32
2022-12-23T23:53:56.665Z,60.55
2022-12-23T23:56:27.281Z,66.97
2022-12-23T23:58:56.296Z,68.72
